createdAt,value
2024-02-16T00:00:05.040Z,3.30
2024-02-16T00:02:33.434Z,5.20
2024-02-16T00:05:00.117Z,2.60
2024-02-16T00:07:27.709Z,6.83
2024-02-16T00:09:54.275Z,2.20
2024-02-16T00:12:20.940Z,5.57
2024-02-16T00:14:47.748Z,7.67
2024-02-16T00:17:14.345Z,3.17
2024-02-16T00:19:40.924Z,4.97
2024-02-16T00:22:08.321Z,2.50
2024-02-16T00:24:34.892Z,1.93
2024-02-16T00:27:02.752Z,2.27
2024-02-16T00:29:29.531Z,1.70
2024-02-16T00:31:56.664Z,3.60
2024-02-16T00:34:23.315Z,4.30
2024-02-16T00:36:50.145Z,12.07
2024-02-16T00:39:16.716Z,9.47
2024-02-16T00:41:43.373Z,11.10
2024-02-16T00:44:09.893Z,3.47
2024-02-16T00:46:37.133Z,2.50
2024-02-16T00:49:03.961Z,4.00
2024-02-16T00:51:30.757Z,1.33
2024-02-16T00:53:57.412Z,2.40
2024-02-16T00:56:24.498Z,2.07
2024-02-16T00:58:51.162Z,4.60
2024-02-16T01:01:17.768Z,4.33
2024-02-16T01:03:44.601Z,2.07
2024-02-16T01:06:11.348Z,7.50
2024-02-16T01:08:37.944Z,6.30
2024-02-16T01:11:04.636Z,3.10
2024-02-16T01:13:31.189Z,6.40
2024-02-16T01:15:57.696Z,2.23
2024-02-16T01:18:24.567Z,4.33
2024-02-16T01:20:51.334Z,4.43
2024-02-16T01:23:17.925Z,3.10
2024-02-16T01:25:44.835Z,4.60
2024-02-16T01:28:13.327Z,2.73
2024-02-16T01:30:39.930Z,2.60
2024-02-16T01:33:07.388Z,2.70
2024-02-16T01:35:34.017Z,1.93
2024-02-16T01:38:00.586Z,8.50
2024-02-16T01:40:27.246Z,6.23
2024-02-16T01:42:54.038Z,4.23
2024-02-16T01:45:20.591Z,5.10
2024-02-16T01:47:47.976Z,3.37
2024-02-16T01:50:14.705Z,5.77
2024-02-16T01:52:41.290Z,4.23
2024-02-16T01:55:11.288Z,3.60
2024-02-16T01:57:37.921Z,5.00
2024-02-16T02:00:04.657Z,6.00
2024-02-16T02:02:31.351Z,1.90
2024-02-16T02:04:57.993Z,2.57
2024-02-16T02:07:24.766Z,3.43
2024-02-16T02:09:51.423Z,4.80
2024-02-16T02:12:18.028Z,1.53
2024-02-16T02:14:44.951Z,2.07
2024-02-16T02:17:11.558Z,16.73
2024-02-16T02:19:38.356Z,3.03
2024-02-16T02:22:05.069Z,2.80
2024-02-16T02:24:31.743Z,6.03
2024-02-16T02:26:58.493Z,3.20
2024-02-16T02:29:25.117Z,2.07
2024-02-16T02:31:51.680Z,4.90
2024-02-16T02:34:18.516Z,1.77
2024-02-16T02:36:45.250Z,5.53
2024-02-16T02:39:11.909Z,2.37
2024-02-16T02:41:38.425Z,2.23
2024-02-16T02:44:06.011Z,3.43
2024-02-16T02:46:32.549Z,4.13
2024-02-16T02:48:59.370Z,4.20
2024-02-16T02:51:26.390Z,2.70
2024-02-16T02:53:52.985Z,5.87
2024-02-16T02:56:19.562Z,7.43
2024-02-16T02:58:46.633Z,3.63
2024-02-16T03:01:13.840Z,2.93
2024-02-16T03:03:40.476Z,5.93
2024-02-16T03:06:07.142Z,3.67
2024-02-16T03:08:33.741Z,7.70
2024-02-16T03:11:05.167Z,2.50
2024-02-16T03:13:31.705Z,7.40
2024-02-16T03:15:58.260Z,6.50
2024-02-16T03:18:25.013Z,5.00
2024-02-16T03:20:51.942Z,3.93
2024-02-16T03:23:18.783Z,2.87
2024-02-16T03:25:45.418Z,4.57
2024-02-16T03:28:13.140Z,5.23
2024-02-16T03:30:39.722Z,2.97
2024-02-16T03:33:06.429Z,3.70
2024-02-16T03:35:33.113Z,6.10
2024-02-16T03:37:59.645Z,2.53
2024-02-16T03:40:26.842Z,3.63
2024-02-16T03:42:53.390Z,2.90
2024-02-16T03:45:20.273Z,2.53
2024-02-16T03:47:49.931Z,4.90
2024-02-16T03:50:16.810Z,3.27
2024-02-16T03:52:43.376Z,2.03
2024-02-16T03:55:10.082Z,2.40
2024-02-16T03:57:37.207Z,1.50
2024-02-16T04:00:03.892Z,3.63
2024-02-16T04:02:30.433Z,4.67
2024-02-16T04:04:57.088Z,2.30
2024-02-16T04:07:23.713Z,6.80
2024-02-16T04:09:50.393Z,1.77
2024-02-16T04:12:17.001Z,1.60
2024-02-16T04:14:44.727Z,1.47
2024-02-16T04:17:11.288Z,5.90
2024-02-16T04:19:37.950Z,2.13
2024-02-16T04:22:04.647Z,8.43
2024-02-16T04:24:31.292Z,4.13
2024-02-16T04:26:57.981Z,2.23
2024-02-16T04:29:24.585Z,3.90
2024-02-16T04:31:51.123Z,3.20
2024-02-16T04:34:17.749Z,3.67
2024-02-16T04:36:44.680Z,3.83
2024-02-16T04:39:11.334Z,2.20
2024-02-16T04:41:38.035Z,2.47
2024-02-16T04:44:04.580Z,7.00
2024-02-16T04:46:31.103Z,4.10
2024-02-16T04:48:57.979Z,2.13
2024-02-16T04:51:25.972Z,5.50
2024-02-16T04:53:52.856Z,7.70
2024-02-16T04:56:19.655Z,5.30
2024-02-16T04:58:46.411Z,6.57
2024-02-16T05:01:13.565Z,2.40
2024-02-16T05:03:42.322Z,3.17
2024-02-16T05:06:09.043Z,3.43
2024-02-16T05:08:35.678Z,4.80
2024-02-16T05:11:03.440Z,6.67
2024-02-16T05:13:30.047Z,2.70
2024-02-16T05:15:56.778Z,3.67
2024-02-16T05:18:23.444Z,4.60
2024-02-16T05:20:50.425Z,2.90
2024-02-16T05:23:17.199Z,3.50
2024-02-16T05:25:43.726Z,4.23
2024-02-16T05:28:10.322Z,1.50
2024-02-16T05:30:37.016Z,9.80
2024-02-16T05:33:04.041Z,7.13
2024-02-16T05:35:34.800Z,3.10
2024-02-16T05:38:08.030Z,4.13
2024-02-16T05:40:46.253Z,6.93
2024-02-16T05:43:13.152Z,4.37
2024-02-16T05:45:42.513Z,3.50
2024-02-16T05:48:11.537Z,2.60
2024-02-16T05:50:38.472Z,2.73
2024-02-16T05:53:05.098Z,4.63
2024-02-16T05:55:31.699Z,4.87
2024-02-16T05:57:58.228Z,2.10
2024-02-16T06:00:24.798Z,2.27
2024-02-16T06:02:51.544Z,2.20
2024-02-16T06:05:18.294Z,2.17
2024-02-16T06:07:44.810Z,3.33
2024-02-16T06:10:12.043Z,2.67
2024-02-16T06:12:39.520Z,7.80
2024-02-16T06:15:06.211Z,3.50
2024-02-16T06:17:32.815Z,2.43
2024-02-16T06:19:59.428Z,4.93
2024-02-16T06:22:26.108Z,3.70
2024-02-16T06:24:52.771Z,6.33
2024-02-16T06:27:20.608Z,2.93
2024-02-16T06:29:47.239Z,3.77
2024-02-16T06:32:14.837Z,8.80
2024-02-16T06:34:41.938Z,7.53
2024-02-16T06:37:08.590Z,4.47
2024-02-16T06:39:35.205Z,3.30
2024-02-16T06:42:01.892Z,3.70
2024-02-16T06:44:28.490Z,6.37
2024-02-16T06:46:55.084Z,5.73
2024-02-16T06:49:21.749Z,6.43
2024-02-16T06:51:48.472Z,5.43
2024-02-16T06:54:15.758Z,2.10
2024-02-16T06:56:42.349Z,4.30
2024-02-16T06:59:10.378Z,3.30
2024-02-16T07:01:37.460Z,2.13
2024-02-16T07:04:04.164Z,4.87
2024-02-16T07:06:30.910Z,3.03
2024-02-16T07:08:57.667Z,4.87
2024-02-16T07:11:24.612Z,4.73
2024-02-16T07:13:51.528Z,2.20
2024-02-16T07:16:19.487Z,4.57
2024-02-16T07:18:46.226Z,5.47
2024-02-16T07:21:12.931Z,5.27
2024-02-16T07:23:39.590Z,10.13
2024-02-16T07:26:07.637Z,4.57
2024-02-16T07:28:34.588Z,6.63
2024-02-16T07:31:01.305Z,5.93
2024-02-16T07:33:29.483Z,12.93
2024-02-16T07:35:56.807Z,6.50
2024-02-16T07:38:23.392Z,2.47
2024-02-16T07:40:51.574Z,6.70
2024-02-16T07:43:19.066Z,2.50
2024-02-16T07:45:46.251Z,3.47
2024-02-16T07:48:13.016Z,5.00
2024-02-16T07:50:39.625Z,5.23
2024-02-16T07:53:06.453Z,2.23
2024-02-16T07:55:33.079Z,5.90
2024-02-16T07:57:59.629Z,16.33
2024-02-16T08:00:26.286Z,4.70
2024-02-16T08:02:53.374Z,6.43
2024-02-16T08:05:20.502Z,5.03
2024-02-16T08:07:48.118Z,10.70
2024-02-16T08:10:15.024Z,4.70
2024-02-16T08:12:42.038Z,4.37
2024-02-16T08:15:08.969Z,2.77
2024-02-16T08:17:35.640Z,5.23
2024-02-16T08:20:02.417Z,2.77
2024-02-16T08:22:29.026Z,2.73
2024-02-16T08:24:55.672Z,9.63
2024-02-16T08:27:22.403Z,4.03
2024-02-16T08:29:49.056Z,4.60
2024-02-16T08:32:17.485Z,4.03
2024-02-16T08:34:44.239Z,19.27
2024-02-16T08:37:11.990Z,2.93
2024-02-16T08:39:38.616Z,2.60
2024-02-16T08:42:05.373Z,12.27
2024-02-16T08:44:31.947Z,6.10
2024-02-16T08:46:58.499Z,7.83
2024-02-16T08:49:25.372Z,6.27
2024-02-16T08:51:52.185Z,3.53
2024-02-16T08:54:19.604Z,2.53
2024-02-16T08:56:46.563Z,8.63
2024-02-16T08:59:13.163Z,8.60
2024-02-16T09:01:43.033Z,5.10
2024-02-16T09:04:09.778Z,11.10
2024-02-16T09:06:36.588Z,6.20
2024-02-16T09:09:03.691Z,5.33
2024-02-16T09:11:30.528Z,4.60
2024-02-16T09:13:57.153Z,5.57
2024-02-16T09:16:25.483Z,6.40
2024-02-16T09:18:52.615Z,21.10
2024-02-16T09:21:19.482Z,2.40
2024-02-16T09:23:46.286Z,7.00
2024-02-16T09:26:13.502Z,6.43
2024-02-16T09:28:40.179Z,3.23
2024-02-16T09:31:07.516Z,4.83
2024-02-16T09:33:34.435Z,5.37
2024-02-16T09:36:01.124Z,8.93
2024-02-16T09:38:27.702Z,14.33
2024-02-16T09:40:54.288Z,9.17
2024-02-16T09:43:20.912Z,6.93
2024-02-16T09:45:47.646Z,4.17
2024-02-16T09:48:14.369Z,5.17
2024-02-16T09:50:41.264Z,3.27
2024-02-16T09:53:07.900Z,9.60
2024-02-16T09:55:37.575Z,17.90
2024-02-16T09:58:06.358Z,7.60
2024-02-16T10:00:33.146Z,8.03
2024-02-16T10:02:59.951Z,6.60
2024-02-16T10:05:26.658Z,4.87
2024-02-16T10:07:53.636Z,7.10
2024-02-16T10:10:20.335Z,2.30
2024-02-16T10:12:46.995Z,3.77
2024-02-16T10:15:13.617Z,2.47
2024-02-16T10:17:40.275Z,3.27
2024-02-16T10:20:07.827Z,2.63
2024-02-16T10:22:47.854Z,3.07
2024-02-16T10:25:15.506Z,3.30
2024-02-16T10:27:42.770Z,16.13
2024-02-16T10:30:13.176Z,3.27
2024-02-16T10:32:39.731Z,3.70
2024-02-16T10:35:06.607Z,9.33
2024-02-16T10:37:33.560Z,6.93
2024-02-16T10:40:00.240Z,4.00
2024-02-16T10:42:26.885Z,5.27
2024-02-16T10:44:53.559Z,2.87
2024-02-16T10:47:20.136Z,4.27
2024-02-16T10:49:46.982Z,4.07
2024-02-16T10:52:15.429Z,4.23
2024-02-16T10:54:42.066Z,4.40
2024-02-16T10:57:08.714Z,7.77
2024-02-16T10:59:35.411Z,8.53
2024-02-16T11:02:02.193Z,5.57
2024-02-16T11:04:28.832Z,5.53
2024-02-16T11:06:57.589Z,6.60
2024-02-16T11:09:24.268Z,9.63
2024-02-16T11:11:50.924Z,11.33
2024-02-16T11:14:17.982Z,5.33
2024-02-16T11:16:44.584Z,7.57
2024-02-16T11:19:11.222Z,4.70
2024-02-16T11:21:37.939Z,4.10
2024-02-16T11:24:04.774Z,5.60
2024-02-16T11:26:31.434Z,8.60
2024-02-16T11:28:58.070Z,7.93
2024-02-16T11:31:24.677Z,12.33
2024-02-16T11:33:51.972Z,4.40
2024-02-16T11:36:20.602Z,5.57
2024-02-16T11:38:47.264Z,3.30
2024-02-16T11:41:13.842Z,8.10
2024-02-16T11:43:40.375Z,7.83
2024-02-16T11:46:06.964Z,7.90
2024-02-16T11:48:33.868Z,16.30
2024-02-16T11:51:00.662Z,3.97
2024-02-16T11:53:27.290Z,2.40
2024-02-16T11:55:53.850Z,4.60
2024-02-16T11:58:20.462Z,5.93
2024-02-16T12:00:48.515Z,4.07
2024-02-16T12:03:15.399Z,3.90
2024-02-16T12:05:42.295Z,9.03
2024-02-16T12:08:09.027Z,3.43
2024-02-16T12:10:35.710Z,3.53
2024-02-16T12:13:05.122Z,12.30
2024-02-16T12:15:33.834Z,8.27
2024-02-16T12:18:02.012Z,8.80
2024-02-16T12:20:28.748Z,4.30
2024-02-16T12:22:55.332Z,4.57
2024-02-16T12:25:21.939Z,5.43
2024-02-16T12:27:48.568Z,5.17
2024-02-16T12:30:15.418Z,5.40
2024-02-16T12:32:42.359Z,19.60
2024-02-16T12:35:09.353Z,13.90
2024-02-16T12:37:36.321Z,3.53
2024-02-16T12:40:02.895Z,10.43
2024-02-16T12:42:30.519Z,4.00
2024-02-16T12:44:57.213Z,10.90
2024-02-16T12:47:23.769Z,12.60
2024-02-16T12:49:50.447Z,12.47
2024-02-16T12:52:17.097Z,11.33
2024-02-16T12:54:44.856Z,11.60
2024-02-16T12:57:12.196Z,8.93
2024-02-16T12:59:38.791Z,10.53
2024-02-16T13:02:05.379Z,9.03
2024-02-16T13:04:33.685Z,6.10
2024-02-16T13:07:00.613Z,3.10
2024-02-16T13:09:27.375Z,6.40
2024-02-16T13:11:55.990Z,6.17
2024-02-16T13:14:23.070Z,7.53
2024-02-16T13:16:49.886Z,7.67
2024-02-16T13:19:19.149Z,15.73
2024-02-16T13:21:46.045Z,10.70
2024-02-16T13:24:12.861Z,4.80
2024-02-16T13:26:39.958Z,9.00
2024-02-16T13:29:06.572Z,7.17
2024-02-16T13:31:33.303Z,6.47
2024-02-16T13:33:59.944Z,6.90
2024-02-16T13:36:26.610Z,5.67
2024-02-16T13:38:53.984Z,8.00
2024-02-16T13:41:20.991Z,11.60
2024-02-16T13:43:47.654Z,6.30
2024-02-16T13:46:14.332Z,10.20
2024-02-16T13:48:42.637Z,10.80
2024-02-16T13:51:09.404Z,9.93
2024-02-16T13:53:36.037Z,10.60
2024-02-16T13:56:05.184Z,14.00
2024-02-16T13:58:31.818Z,4.17
2024-02-16T14:00:58.512Z,12.07
2024-02-16T14:03:25.317Z,13.23
2024-02-16T14:05:52.692Z,17.33
2024-02-16T14:08:19.339Z,6.73
2024-02-16T14:10:45.929Z,16.73
2024-02-16T14:13:12.567Z,12.20
2024-02-16T14:15:39.534Z,11.83
2024-02-16T14:18:12.064Z,9.43
2024-02-16T14:20:44.028Z,7.17
2024-02-16T14:23:11.415Z,11.60
2024-02-16T14:25:38.906Z,8.67
2024-02-16T14:28:05.736Z,9.53
2024-02-16T14:30:33.549Z,7.17
2024-02-16T14:33:00.583Z,12.00
2024-02-16T14:35:27.352Z,12.93
2024-02-16T14:37:54.036Z,8.70
2024-02-16T14:40:20.604Z,18.00
2024-02-16T14:42:47.242Z,11.70
2024-02-16T14:45:20.688Z,12.10
2024-02-16T14:47:48.028Z,10.73
2024-02-16T14:50:14.727Z,9.30
2024-02-16T14:52:41.345Z,9.00
2024-02-16T14:55:11.231Z,9.03
2024-02-16T14:57:38.097Z,11.20
2024-02-16T15:00:04.842Z,13.60
2024-02-16T15:02:31.671Z,11.50
2024-02-16T15:04:58.457Z,15.90
2024-02-16T15:07:25.102Z,15.13
2024-02-16T15:09:51.919Z,16.60
2024-02-16T15:12:20.874Z,13.90
2024-02-16T15:14:47.668Z,15.30
2024-02-16T15:17:14.700Z,9.83
2024-02-16T15:19:41.412Z,10.47
2024-02-16T15:22:08.081Z,10.03
2024-02-16T15:24:34.963Z,15.10
2024-02-16T15:27:02.065Z,16.90
2024-02-16T15:29:28.697Z,12.03
2024-02-16T15:31:56.434Z,16.17
2024-02-16T15:34:23.241Z,9.27
2024-02-16T15:36:50.005Z,10.40
2024-02-16T15:39:16.625Z,13.83
2024-02-16T15:41:43.233Z,10.07
2024-02-16T15:44:11.471Z,15.70
2024-02-16T15:46:41.240Z,7.47
2024-02-16T15:49:08.101Z,8.67
2024-02-16T15:51:34.702Z,8.73
2024-02-16T15:54:02.398Z,9.80
2024-02-16T15:56:28.979Z,4.43
2024-02-16T15:59:00.427Z,5.83
2024-02-16T16:01:28.023Z,7.00
2024-02-16T16:03:54.733Z,5.83
2024-02-16T16:06:21.751Z,6.40
2024-02-16T16:08:48.475Z,5.03
2024-02-16T16:11:15.143Z,6.10
2024-02-16T16:13:42.113Z,6.70
2024-02-16T16:16:09.124Z,6.90
2024-02-16T16:18:36.281Z,6.73
2024-02-16T16:21:03.906Z,6.77
2024-02-16T16:23:30.529Z,6.37
2024-02-16T16:26:00.174Z,4.47
2024-02-16T16:28:28.376Z,4.57
2024-02-16T16:30:54.993Z,9.63
2024-02-16T16:33:21.751Z,4.87
2024-02-16T16:35:50.882Z,6.37
2024-02-16T16:38:17.560Z,7.00
2024-02-16T16:40:44.436Z,6.97
2024-02-16T16:43:11.205Z,8.10
2024-02-16T16:45:38.952Z,7.40
2024-02-16T16:48:05.876Z,10.97
2024-02-16T16:50:32.593Z,16.60
2024-02-16T16:52:59.627Z,16.90
2024-02-16T16:55:26.262Z,18.70
2024-02-16T16:57:53.004Z,19.33
2024-02-16T17:00:19.643Z,21.27
2024-02-16T17:02:46.244Z,25.50
2024-02-16T17:05:13.029Z,22.17
2024-02-16T17:07:39.804Z,20.07
2024-02-16T17:10:06.530Z,28.60
2024-02-16T17:12:33.225Z,31.53
2024-02-16T17:14:59.849Z,28.23
2024-02-16T17:17:26.549Z,34.97
2024-02-16T17:19:53.205Z,33.53
2024-02-16T17:22:19.841Z,36.47
2024-02-16T17:24:46.627Z,31.97
2024-02-16T17:27:13.272Z,33.80
2024-02-16T17:29:42.015Z,41.30
2024-02-16T17:32:10.670Z,40.57
2024-02-16T17:34:37.343Z,32.37
2024-02-16T17:37:03.996Z,33.80
2024-02-16T17:39:30.735Z,33.90
2024-02-16T17:41:57.565Z,35.83
2024-02-16T17:44:24.188Z,37.50
2024-02-16T17:46:50.817Z,38.00
2024-02-16T17:49:17.474Z,39.47
2024-02-16T17:51:44.586Z,41.90
2024-02-16T17:54:11.312Z,45.80
2024-02-16T17:56:37.845Z,36.00
2024-02-16T17:59:04.607Z,39.57
2024-02-16T18:01:31.232Z,41.47
2024-02-16T18:03:58.034Z,44.60
2024-02-16T18:06:24.785Z,49.00
2024-02-16T18:08:51.663Z,42.47
2024-02-16T18:11:18.523Z,48.60
2024-02-16T18:13:45.187Z,45.37
2024-02-16T18:16:12.194Z,45.77
2024-02-16T18:18:38.947Z,39.80
2024-02-16T18:21:05.670Z,42.00
2024-02-16T18:23:32.258Z,36.37
2024-02-16T18:25:59.456Z,31.67
2024-02-16T18:28:30.151Z,31.67
2024-02-16T18:31:01.064Z,33.37
2024-02-16T18:33:30.441Z,28.53
2024-02-16T18:35:57.297Z,34.23
2024-02-16T18:38:23.918Z,41.70
2024-02-16T18:40:50.584Z,36.83
2024-02-16T18:43:17.219Z,33.40
2024-02-16T18:45:43.897Z,36.20
2024-02-16T18:48:10.731Z,35.17
2024-02-16T18:50:37.851Z,34.43
2024-02-16T18:53:04.402Z,29.53
2024-02-16T18:55:30.924Z,27.47
2024-02-16T18:57:58.388Z,28.63
2024-02-16T19:00:25.073Z,25.57
2024-02-16T19:02:51.653Z,28.93
2024-02-16T19:05:18.655Z,25.07
2024-02-16T19:07:45.344Z,25.03
2024-02-16T19:10:12.178Z,29.57
2024-02-16T19:12:38.949Z,26.17
2024-02-16T19:15:08.345Z,29.87
2024-02-16T19:17:35.803Z,29.33
2024-02-16T19:20:05.149Z,29.40
2024-02-16T19:22:32.335Z,27.27
2024-02-16T19:24:58.999Z,34.40
2024-02-16T19:27:27.490Z,29.00
2024-02-16T19:29:55.598Z,33.33
2024-02-16T19:32:22.175Z,27.83
2024-02-16T19:34:48.770Z,33.53
2024-02-16T19:37:15.531Z,35.70
2024-02-16T19:39:42.232Z,38.20
2024-02-16T19:42:08.985Z,41.80
2024-02-16T19:44:36.706Z,32.83
2024-02-16T19:47:04.387Z,30.53
2024-02-16T19:49:31.249Z,35.93
2024-02-16T19:51:57.954Z,33.10
2024-02-16T19:54:24.745Z,36.57
2024-02-16T19:56:51.362Z,33.90
2024-02-16T19:59:17.982Z,37.27
2024-02-16T20:01:44.614Z,36.17
2024-02-16T20:04:11.281Z,28.77
2024-02-16T20:06:38.036Z,38.93
2024-02-16T20:09:06.135Z,33.63
2024-02-16T20:11:32.960Z,31.67
2024-02-16T20:13:59.679Z,35.43
2024-02-16T20:16:26.304Z,29.90
2024-02-16T20:18:53.218Z,27.40
2024-02-16T20:21:20.129Z,31.13
2024-02-16T20:23:47.489Z,27.70
2024-02-16T20:26:14.168Z,26.10
2024-02-16T20:28:40.818Z,20.63
2024-02-16T20:31:10.128Z,19.67
2024-02-16T20:33:36.982Z,17.30
2024-02-16T20:36:03.807Z,18.07
2024-02-16T20:38:30.406Z,25.20
2024-02-16T20:40:59.398Z,25.67
2024-02-16T20:43:26.352Z,20.77
2024-02-16T20:45:53.013Z,25.87
2024-02-16T20:48:19.735Z,25.43
2024-02-16T20:50:46.757Z,23.60
2024-02-16T20:53:13.397Z,25.90
2024-02-16T20:55:39.975Z,21.53
2024-02-16T20:58:07.490Z,20.40
2024-02-16T21:00:34.205Z,24.57
2024-02-16T21:03:00.932Z,22.30
2024-02-16T21:05:27.671Z,21.03
2024-02-16T21:07:55.993Z,19.63
2024-02-16T21:10:22.591Z,23.80
2024-02-16T21:12:49.203Z,27.80
2024-02-16T21:15:16.750Z,25.77
2024-02-16T21:17:43.449Z,26.87
2024-02-16T21:20:10.171Z,25.23
2024-02-16T21:22:37.986Z,23.43
2024-02-16T21:25:05.747Z,28.83
2024-02-16T21:27:32.368Z,22.70
2024-02-16T21:29:59.113Z,30.50
2024-02-16T21:32:25.739Z,33.13
2024-02-16T21:34:53.357Z,38.47
2024-02-16T21:37:20.354Z,33.00
2024-02-16T21:39:47.096Z,27.63
2024-02-16T21:42:14.983Z,30.77
2024-02-16T21:44:41.907Z,26.13
2024-02-16T21:47:10.395Z,28.73
2024-02-16T21:49:37.005Z,30.60
2024-02-16T21:52:03.702Z,29.90
2024-02-16T21:54:30.460Z,31.13
2024-02-16T21:56:57.130Z,35.10
2024-02-16T21:59:23.701Z,24.97
2024-02-16T22:01:50.233Z,31.30
2024-02-16T22:04:16.935Z,31.03
2024-02-16T22:06:43.634Z,34.10
2024-02-16T22:09:10.505Z,37.93
2024-02-16T22:11:37.121Z,37.87
2024-02-16T22:14:03.788Z,35.97
2024-02-16T22:16:30.640Z,37.57
2024-02-16T22:18:57.698Z,34.10
2024-02-16T22:21:30.748Z,36.43
2024-02-16T22:24:03.868Z,36.00
2024-02-16T22:26:31.361Z,39.30
2024-02-16T22:28:57.984Z,38.77
2024-02-16T22:31:29.450Z,38.83
2024-02-16T22:34:00.724Z,36.83
2024-02-16T22:36:29.934Z,38.83
2024-02-16T22:38:56.730Z,43.50
2024-02-16T22:41:23.310Z,40.50
2024-02-16T22:43:50.750Z,41.87
2024-02-16T22:46:17.370Z,49.00
2024-02-16T22:48:44.324Z,44.57
2024-02-16T22:51:11.366Z,41.67
2024-02-16T22:53:38.025Z,53.70
2024-02-16T22:56:04.637Z,45.40
2024-02-16T22:58:31.184Z,43.67
2024-02-16T23:00:57.965Z,50.17
2024-02-16T23:03:24.925Z,50.07
2024-02-16T23:05:54.991Z,49.40
2024-02-16T23:08:21.560Z,51.67
2024-02-16T23:10:48.675Z,50.50
2024-02-16T23:13:15.895Z,56.20
2024-02-16T23:15:42.687Z,77.00
2024-02-16T23:18:09.517Z,43.17
2024-02-16T23:20:36.252Z,47.57
2024-02-16T23:23:03.284Z,61.30
2024-02-16T23:25:30.065Z,48.27
2024-02-16T23:27:56.662Z,57.90
2024-02-16T23:30:23.297Z,67.67
2024-02-16T23:32:50.047Z,54.50
2024-02-16T23:35:16.743Z,59.50
2024-02-16T23:37:43.357Z,53.20
2024-02-16T23:40:10.319Z,49.90
2024-02-16T23:42:39.011Z,64.60
2024-02-16T23:45:05.838Z,67.73
2024-02-16T23:47:32.521Z,56.70
2024-02-16T23:49:59.524Z,62.00
2024-02-16T23:52:26.114Z,59.10
2024-02-16T23:54:52.705Z,58.67
2024-02-16T23:57:19.366Z,62.63
2024-02-16T23:59:48.945Z,71.73
